createdAt,value
2023-05-03T00:00:16.000Z,71.18
2023-05-03T00:01:13.000Z,71.22
2023-05-03T00:02:13.000Z,71.14
2023-05-03T00:03:13.000Z,71.50
2023-05-03T00:04:15.000Z,71.36
2023-05-03T00:05:13.000Z,71.82
2023-05-03T00:06:14.000Z,73.04
2023-05-03T00:07:13.000Z,73.05
2023-05-03T00:08:12.000Z,72.37
2023-05-03T00:09:13.000Z,72.12
2023-05-03T00:10:14.000Z,73.37
2023-05-03T00:11:13.000Z,73.51
2023-05-03T00:12:13.000Z,73.19
2023-05-03T00:13:12.000Z,73.02
2023-05-03T00:14:13.000Z,72.33
2023-05-03T00:15:13.000Z,72.72
2023-05-03T00:16:13.000Z,73.17
2023-05-03T00:17:13.000Z,73.35
2023-05-03T00:18:13.000Z,73.05
2023-05-03T00:19:13.000Z,72.87
2023-05-03T00:20:14.000Z,73.49
2023-05-03T00:21:13.000Z,73.52
2023-05-03T00:22:13.000Z,74.20
2023-05-03T00:23:12.000Z,73.69
2023-05-03T00:24:12.000Z,73.79
2023-05-03T00:25:14.000Z,74.66
2023-05-03T00:26:12.000Z,74.64
2023-05-03T00:27:12.000Z,74.54
2023-05-03T00:28:12.000Z,74.22
2023-05-03T00:29:12.000Z,74.38
2023-05-03T00:30:12.000Z,74.27
2023-05-03T00:31:12.000Z,73.79
2023-05-03T00:32:12.000Z,73.37
2023-05-03T00:33:13.000Z,73.15
2023-05-03T00:34:12.000Z,73.19
2023-05-03T00:35:12.000Z,73.37
2023-05-03T00:36:13.000Z,73.51
2023-05-03T00:37:12.000Z,73.01
2023-05-03T00:38:16.000Z,73.08
2023-05-03T00:39:13.000Z,73.30
2023-05-03T00:40:16.000Z,73.27
2023-05-03T00:41:12.000Z,73.67
2023-05-03T00:42:12.000Z,73.87
2023-05-03T00:43:12.000Z,73.28
2023-05-03T00:44:12.000Z,73.07
2023-05-03T00:45:12.000Z,72.86
2023-05-03T00:46:12.000Z,73.38
2023-05-03T00:47:14.000Z,73.17
2023-05-03T00:48:12.000Z,72.89
2023-05-03T00:49:12.000Z,73.03
2023-05-03T00:50:12.000Z,72.87
2023-05-03T00:51:13.000Z,72.60
2023-05-03T00:52:12.000Z,73.15
2023-05-03T00:53:13.000Z,73.15
2023-05-03T00:54:12.000Z,72.99
2023-05-03T00:55:13.000Z,72.93
2023-05-03T00:56:17.000Z,72.76
2023-05-03T00:57:12.000Z,73.05
2023-05-03T00:58:12.000Z,73.30
2023-05-03T00:59:12.000Z,73.01
2023-05-03T01:00:13.000Z,73.03
2023-05-03T01:01:14.000Z,73.33
2023-05-03T01:02:12.000Z,73.92
2023-05-03T01:03:13.000Z,73.93
2023-05-03T01:04:12.000Z,74.05
2023-05-03T01:05:12.000Z,73.92
2023-05-03T01:06:22.000Z,73.67
2023-05-03T01:07:33.000Z,73.13
2023-05-03T01:08:27.000Z,73.42
2023-05-03T01:09:26.000Z,73.58
2023-05-03T01:10:22.000Z,73.20
2023-05-03T01:11:21.000Z,73.67
2023-05-03T01:12:35.000Z,74.04
2023-05-03T01:13:35.000Z,74.01
2023-05-03T01:14:26.000Z,73.66
2023-05-03T01:15:25.000Z,74.04
2023-05-03T01:16:45.000Z,74.17
2023-05-03T01:17:13.000Z,74.13
2023-05-03T01:18:21.000Z,74.15
2023-05-03T01:19:24.000Z,74.09
2023-05-03T01:20:12.000Z,74.03
2023-05-03T01:21:15.000Z,73.66
2023-05-03T01:22:24.000Z,74.40
2023-05-03T01:23:26.000Z,75.29
2023-05-03T01:24:20.000Z,75.15
2023-05-03T01:25:13.000Z,74.79
2023-05-03T01:26:19.000Z,74.35
2023-05-03T01:27:12.000Z,74.20
2023-05-03T01:28:12.000Z,74.45
2023-05-03T01:29:13.000Z,74.12
2023-05-03T01:30:12.000Z,74.55
2023-05-03T01:31:22.000Z,74.75
2023-05-03T01:32:20.000Z,74.33
2023-05-03T01:33:20.000Z,74.36
2023-05-03T01:34:33.000Z,74.60
2023-05-03T01:35:22.000Z,74.81
2023-05-03T01:36:21.000Z,75.12
2023-05-03T01:37:12.000Z,75.26
2023-05-03T01:38:13.000Z,75.60
2023-05-03T01:39:21.000Z,75.81
2023-05-03T01:40:17.000Z,75.73
2023-05-03T01:41:16.000Z,75.23
2023-05-03T01:42:14.000Z,75.14
2023-05-03T01:43:15.000Z,75.53
2023-05-03T01:44:14.000Z,75.12
2023-05-03T01:45:13.000Z,74.82
2023-05-03T01:46:13.000Z,74.77
2023-05-03T01:47:14.000Z,74.60
2023-05-03T01:48:17.000Z,74.81
2023-05-03T01:49:12.000Z,74.63
2023-05-03T01:50:13.000Z,74.82
2023-05-03T01:51:12.000Z,75.45
2023-05-03T01:52:12.000Z,75.22
2023-05-03T01:53:12.000Z,75.31
2023-05-03T01:54:12.000Z,75.33
2023-05-03T01:55:12.000Z,75.45
2023-05-03T01:56:11.000Z,75.63
2023-05-03T01:57:12.000Z,75.64
2023-05-03T01:58:12.000Z,76.13
2023-05-03T01:59:12.000Z,76.29
2023-05-03T02:00:12.000Z,75.95
2023-05-03T02:01:12.000Z,75.69
2023-05-03T02:02:12.000Z,75.78
2023-05-03T02:03:12.000Z,75.75
2023-05-03T02:04:12.000Z,75.39
2023-05-03T02:05:12.000Z,75.37
2023-05-03T02:06:12.000Z,75.56
2023-05-03T02:07:12.000Z,74.95
2023-05-03T02:08:12.000Z,75.54
2023-05-03T02:09:12.000Z,75.54
2023-05-03T02:10:13.000Z,75.83
2023-05-03T02:11:12.000Z,75.35
2023-05-03T02:12:11.000Z,75.23
2023-05-03T02:13:12.000Z,75.57
2023-05-03T02:14:12.000Z,75.04
2023-05-03T02:15:12.000Z,75.17
2023-05-03T02:16:12.000Z,75.43
2023-05-03T02:17:12.000Z,74.85
2023-05-03T02:18:12.000Z,74.95
2023-05-03T02:19:12.000Z,74.78
2023-05-03T02:20:11.000Z,75.34
2023-05-03T02:21:12.000Z,74.83
2023-05-03T02:22:11.000Z,74.96
2023-05-03T02:23:12.000Z,74.83
2023-05-03T02:24:11.000Z,74.70
2023-05-03T02:25:11.000Z,74.39
2023-05-03T02:26:11.000Z,74.09
2023-05-03T02:27:11.000Z,74.05
2023-05-03T02:28:12.000Z,74.28
2023-05-03T02:29:12.000Z,74.37
2023-05-03T02:30:12.000Z,74.10
2023-05-03T02:31:12.000Z,74.28
2023-05-03T02:32:11.000Z,74.16
2023-05-03T02:33:12.000Z,73.89
2023-05-03T02:34:12.000Z,73.95
2023-05-03T02:35:11.000Z,74.09
2023-05-03T02:36:12.000Z,73.82
2023-05-03T02:37:12.000Z,74.37
2023-05-03T02:38:12.000Z,74.13
2023-05-03T02:39:12.000Z,73.89
2023-05-03T02:40:12.000Z,74.63
2023-05-03T02:41:12.000Z,74.16
2023-05-03T02:42:12.000Z,74.62
2023-05-03T02:43:11.000Z,74.39
2023-05-03T02:44:12.000Z,74.37
2023-05-03T02:45:12.000Z,74.00
2023-05-03T02:46:12.000Z,74.21
2023-05-03T02:47:12.000Z,74.45
2023-05-03T02:48:12.000Z,74.47
2023-05-03T02:49:11.000Z,74.60
2023-05-03T02:50:12.000Z,74.96
2023-05-03T02:51:12.000Z,75.22
2023-05-03T02:52:12.000Z,75.28
2023-05-03T02:53:12.000Z,75.23
2023-05-03T02:54:12.000Z,75.37
2023-05-03T02:55:12.000Z,75.10
2023-05-03T02:56:11.000Z,74.94
2023-05-03T02:57:11.000Z,75.01
2023-05-03T02:58:12.000Z,75.67
2023-05-03T02:59:11.000Z,75.59
2023-05-03T03:00:14.000Z,75.55
2023-05-03T03:01:12.000Z,75.62
2023-05-03T03:02:11.000Z,75.38
2023-05-03T03:03:11.000Z,75.54
2023-05-03T03:04:12.000Z,75.53
2023-05-03T03:05:12.000Z,75.26
2023-05-03T03:06:12.000Z,75.25
2023-05-03T03:07:12.000Z,74.79
2023-05-03T03:08:12.000Z,74.90
2023-05-03T03:09:11.000Z,74.90
2023-05-03T03:10:12.000Z,75.59
2023-05-03T03:11:12.000Z,75.54
2023-05-03T03:12:12.000Z,75.64
2023-05-03T03:13:12.000Z,75.20
2023-05-03T03:14:11.000Z,75.72
2023-05-03T03:15:12.000Z,75.37
2023-05-03T03:16:12.000Z,75.44
2023-05-03T03:17:12.000Z,75.34
2023-05-03T03:18:12.000Z,75.67
2023-05-03T03:19:12.000Z,75.13
2023-05-03T03:20:12.000Z,74.97
2023-05-03T03:21:12.000Z,75.37
2023-05-03T03:22:12.000Z,74.89
2023-05-03T03:23:12.000Z,75.28
2023-05-03T03:24:12.000Z,75.41
2023-05-03T03:25:12.000Z,75.38
2023-05-03T03:26:11.000Z,75.43
2023-05-03T03:27:11.000Z,75.16
2023-05-03T03:28:11.000Z,75.21
2023-05-03T03:29:11.000Z,75.30
2023-05-03T03:30:12.000Z,75.30
2023-05-03T03:31:11.000Z,74.96
2023-05-03T03:32:11.000Z,75.46
2023-05-03T03:33:11.000Z,75.54
2023-05-03T03:34:12.000Z,75.07
2023-05-03T03:35:12.000Z,75.61
2023-05-03T03:36:11.000Z,75.27
2023-05-03T03:37:12.000Z,74.92
2023-05-03T03:38:12.000Z,75.16
2023-05-03T03:39:12.000Z,75.45
2023-05-03T03:40:11.000Z,74.95
2023-05-03T03:41:11.000Z,75.28
2023-05-03T03:42:12.000Z,75.25
2023-05-03T03:43:11.000Z,75.43
2023-05-03T03:44:12.000Z,75.16
2023-05-03T03:45:12.000Z,75.44
2023-05-03T03:46:11.000Z,75.12
2023-05-03T03:47:11.000Z,75.17
2023-05-03T03:48:11.000Z,74.87
2023-05-03T03:49:11.000Z,75.17
2023-05-03T03:50:12.000Z,74.98
2023-05-03T03:51:11.000Z,75.20
2023-05-03T03:52:12.000Z,75.06
2023-05-03T03:53:11.000Z,75.15
2023-05-03T03:54:12.000Z,75.13
2023-05-03T03:55:12.000Z,75.24
2023-05-03T03:56:11.000Z,75.01
2023-05-03T03:57:11.000Z,75.52
2023-05-03T03:58:12.000Z,75.23
2023-05-03T03:59:11.000Z,75.11
2023-05-03T04:00:13.000Z,75.29
2023-05-03T04:01:11.000Z,74.97
2023-05-03T04:02:11.000Z,75.21
2023-05-03T04:03:11.000Z,75.40
2023-05-03T04:04:11.000Z,75.41
2023-05-03T04:05:12.000Z,75.33
2023-05-03T04:06:11.000Z,75.90
2023-05-03T04:07:11.000Z,75.78
2023-05-03T04:08:11.000Z,75.79
2023-05-03T04:09:12.000Z,75.31
2023-05-03T04:10:12.000Z,75.05
2023-05-03T04:11:11.000Z,75.40
2023-05-03T04:12:11.000Z,75.54
2023-05-03T04:13:11.000Z,75.60
2023-05-03T04:14:11.000Z,75.38
2023-05-03T04:15:11.000Z,75.33
2023-05-03T04:16:11.000Z,75.52
2023-05-03T04:17:11.000Z,75.67
2023-05-03T04:18:11.000Z,75.17
2023-05-03T04:19:11.000Z,75.09
2023-05-03T04:20:12.000Z,75.04
2023-05-03T04:21:11.000Z,75.47
2023-05-03T04:22:11.000Z,76.05
2023-05-03T04:23:11.000Z,76.24
2023-05-03T04:24:14.000Z,76.01
2023-05-03T04:25:15.000Z,75.71
2023-05-03T04:26:12.000Z,76.13
2023-05-03T04:27:13.000Z,75.70
2023-05-03T04:28:13.000Z,75.53
2023-05-03T04:29:12.000Z,75.61
2023-05-03T04:30:13.000Z,75.37
2023-05-03T04:31:13.000Z,76.11
2023-05-03T04:32:13.000Z,75.60
2023-05-03T04:33:12.000Z,75.97
2023-05-03T04:34:15.000Z,75.84
2023-05-03T04:35:12.000Z,75.69
2023-05-03T04:36:15.000Z,75.88
2023-05-03T04:37:12.000Z,75.75
2023-05-03T04:38:12.000Z,75.83
2023-05-03T04:39:12.000Z,75.65
2023-05-03T04:40:12.000Z,75.90
2023-05-03T04:41:12.000Z,75.62
2023-05-03T04:42:14.000Z,76.19
2023-05-03T04:43:12.000Z,75.96
2023-05-03T04:44:13.000Z,75.64
2023-05-03T04:45:13.000Z,76.45
2023-05-03T04:46:12.000Z,76.57
2023-05-03T04:47:12.000Z,76.09
2023-05-03T04:48:12.000Z,76.31
2023-05-03T04:49:12.000Z,76.57
2023-05-03T04:50:12.000Z,76.33
2023-05-03T04:51:12.000Z,76.61
2023-05-03T04:52:13.000Z,76.03
2023-05-03T04:53:12.000Z,76.10
2023-05-03T04:54:12.000Z,76.27
2023-05-03T04:55:12.000Z,76.23
2023-05-03T04:56:12.000Z,76.14
2023-05-03T04:57:11.000Z,75.98
2023-05-03T04:58:11.000Z,75.89
2023-05-03T04:59:11.000Z,76.17
2023-05-03T05:00:12.000Z,76.02
2023-05-03T05:01:12.000Z,76.37
2023-05-03T05:02:11.000Z,76.48
2023-05-03T05:03:11.000Z,76.29
2023-05-03T05:04:11.000Z,76.34
2023-05-03T05:05:12.000Z,76.37
2023-05-03T05:06:11.000Z,76.45
2023-05-03T05:07:11.000Z,76.37
2023-05-03T05:08:11.000Z,77.07
2023-05-03T05:09:21.000Z,77.31
2023-05-03T05:10:13.000Z,77.56
2023-05-03T05:11:12.000Z,77.56
2023-05-03T05:12:12.000Z,77.75
2023-05-03T05:13:12.000Z,77.47
2023-05-03T05:14:11.000Z,77.54
2023-05-03T05:15:11.000Z,77.14
2023-05-03T05:16:11.000Z,76.85
2023-05-03T05:17:11.000Z,77.08
2023-05-03T05:18:11.000Z,77.33
2023-05-03T05:19:12.000Z,76.70
2023-05-03T05:20:11.000Z,76.70
2023-05-03T05:21:12.000Z,77.27
2023-05-03T05:22:12.000Z,77.27
2023-05-03T05:23:12.000Z,77.44
2023-05-03T05:24:12.000Z,77.22
2023-05-03T05:25:12.000Z,77.32
2023-05-03T05:26:11.000Z,77.51
2023-05-03T05:27:11.000Z,76.88
2023-05-03T05:28:11.000Z,77.15
2023-05-03T05:29:11.000Z,76.82
2023-05-03T05:30:12.000Z,77.02
2023-05-03T05:31:11.000Z,77.02
2023-05-03T05:32:12.000Z,76.71
2023-05-03T05:33:11.000Z,76.72
2023-05-03T05:34:12.000Z,76.57
2023-05-03T05:35:12.000Z,76.78
2023-05-03T05:36:12.000Z,77.45
2023-05-03T05:37:11.000Z,77.38
2023-05-03T05:38:12.000Z,76.90
2023-05-03T05:39:11.000Z,76.48
2023-05-03T05:40:12.000Z,76.73
2023-05-03T05:41:11.000Z,76.75
2023-05-03T05:42:12.000Z,77.21
2023-05-03T05:43:11.000Z,77.06
2023-05-03T05:44:11.000Z,76.90
2023-05-03T05:45:12.000Z,77.13
2023-05-03T05:46:12.000Z,76.43
2023-05-03T05:47:12.000Z,76.35
2023-05-03T05:48:12.000Z,76.06
2023-05-03T05:49:11.000Z,75.94
2023-05-03T05:50:11.000Z,75.80
2023-05-03T05:51:11.000Z,75.92
2023-05-03T05:52:11.000Z,76.10
2023-05-03T05:53:11.000Z,75.99
2023-05-03T05:54:12.000Z,76.42
2023-05-03T05:55:13.000Z,76.15
2023-05-03T05:56:13.000Z,75.99
2023-05-03T05:57:12.000Z,75.92
2023-05-03T05:58:12.000Z,75.97
2023-05-03T05:59:12.000Z,76.48
2023-05-03T06:00:16.000Z,76.15
2023-05-03T06:01:12.000Z,76.05
2023-05-03T06:02:14.000Z,76.02
2023-05-03T06:03:12.000Z,75.91
2023-05-03T06:04:12.000Z,75.65
2023-05-03T06:05:12.000Z,75.83
2023-05-03T06:06:12.000Z,75.00
2023-05-03T06:07:13.000Z,75.61
2023-05-03T06:08:12.000Z,75.64
2023-05-03T06:09:13.000Z,76.02
2023-05-03T06:10:12.000Z,75.71
2023-05-03T06:11:13.000Z,75.86
2023-05-03T06:12:12.000Z,75.57
2023-05-03T06:13:12.000Z,75.28
2023-05-03T06:14:12.000Z,75.64
2023-05-03T06:15:12.000Z,75.24
2023-05-03T06:16:12.000Z,74.96
2023-05-03T06:17:12.000Z,74.85
2023-05-03T06:18:12.000Z,75.01
2023-05-03T06:19:12.000Z,75.16
2023-05-03T06:20:12.000Z,75.05
2023-05-03T06:21:12.000Z,74.54
2023-05-03T06:22:13.000Z,74.63
2023-05-03T06:23:12.000Z,74.80
2023-05-03T06:24:19.000Z,74.53
2023-05-03T06:25:13.000Z,74.49
2023-05-03T06:26:12.000Z,74.69
2023-05-03T06:27:12.000Z,74.73
2023-05-03T06:28:12.000Z,74.57
2023-05-03T06:29:12.000Z,74.44
2023-05-03T06:30:12.000Z,74.52
2023-05-03T06:31:12.000Z,74.56
2023-05-03T06:32:12.000Z,74.69
2023-05-03T06:33:13.000Z,74.61
2023-05-03T06:34:11.000Z,74.82
2023-05-03T06:35:12.000Z,75.23
2023-05-03T06:36:12.000Z,75.04
2023-05-03T06:37:12.000Z,75.01
2023-05-03T06:38:12.000Z,75.45
2023-05-03T06:39:12.000Z,75.47
2023-05-03T06:40:12.000Z,75.86
2023-05-03T06:41:11.000Z,75.47
2023-05-03T06:42:12.000Z,75.48
2023-05-03T06:43:12.000Z,75.66
2023-05-03T06:44:11.000Z,74.71
2023-05-03T06:45:11.000Z,74.83
2023-05-03T06:46:12.000Z,75.41
2023-05-03T06:47:12.000Z,75.35
2023-05-03T06:48:12.000Z,75.54
2023-05-03T06:49:11.000Z,75.14
2023-05-03T06:50:12.000Z,75.21
2023-05-03T06:51:12.000Z,75.19
2023-05-03T06:52:11.000Z,75.29
2023-05-03T06:53:11.000Z,75.15
2023-05-03T06:54:13.000Z,75.13
2023-05-03T06:55:12.000Z,74.96
2023-05-03T06:56:11.000Z,75.09
2023-05-03T06:57:11.000Z,75.23
2023-05-03T06:58:11.000Z,75.32
2023-05-03T06:59:12.000Z,75.10
2023-05-03T07:00:12.000Z,74.92
2023-05-03T07:01:12.000Z,75.03
2023-05-03T07:02:11.000Z,74.82
2023-05-03T07:03:11.000Z,74.85
2023-05-03T07:04:12.000Z,74.82
2023-05-03T07:05:11.000Z,74.95
2023-05-03T07:06:12.000Z,74.51
2023-05-03T07:07:12.000Z,74.16
2023-05-03T07:08:12.000Z,74.52
2023-05-03T07:09:12.000Z,74.44
2023-05-03T07:10:12.000Z,74.40
2023-05-03T07:11:11.000Z,74.29
2023-05-03T07:12:12.000Z,74.19
2023-05-03T07:13:12.000Z,74.48
2023-05-03T07:14:11.000Z,74.60
2023-05-03T07:15:13.000Z,74.52
2023-05-03T07:16:11.000Z,74.56
2023-05-03T07:17:11.000Z,74.62
2023-05-03T07:18:12.000Z,73.90
2023-05-03T07:19:11.000Z,73.65
2023-05-03T07:20:12.000Z,73.68
2023-05-03T07:21:12.000Z,73.81
2023-05-03T07:22:12.000Z,73.88
2023-05-03T07:23:11.000Z,73.88
2023-05-03T07:24:11.000Z,73.81
2023-05-03T07:25:13.000Z,73.97
2023-05-03T07:26:11.000Z,74.41
2023-05-03T07:27:12.000Z,73.58
2023-05-03T07:28:11.000Z,73.27
2023-05-03T07:29:11.000Z,73.47
2023-05-03T07:30:12.000Z,73.32
2023-05-03T07:31:12.000Z,73.22
2023-05-03T07:32:12.000Z,73.62
2023-05-03T07:33:12.000Z,73.35
2023-05-03T07:34:12.000Z,73.75
2023-05-03T07:35:13.000Z,73.68
2023-05-03T07:36:12.000Z,73.48
2023-05-03T07:37:12.000Z,73.88
2023-05-03T07:38:12.000Z,73.59
2023-05-03T07:39:12.000Z,73.40
2023-05-03T07:40:12.000Z,73.27
2023-05-03T07:41:12.000Z,73.09
2023-05-03T07:42:12.000Z,72.59
2023-05-03T07:43:13.000Z,72.80
2023-05-03T07:44:12.000Z,72.86
2023-05-03T07:45:12.000Z,72.79
2023-05-03T07:46:12.000Z,72.82
2023-05-03T07:47:12.000Z,72.87
2023-05-03T07:48:12.000Z,72.57
2023-05-03T07:49:12.000Z,72.58
2023-05-03T07:50:12.000Z,72.65
2023-05-03T07:51:12.000Z,72.46
2023-05-03T07:52:12.000Z,72.28
2023-05-03T07:53:13.000Z,71.85
2023-05-03T07:54:12.000Z,71.31
2023-05-03T07:55:12.000Z,71.60
2023-05-03T07:56:12.000Z,71.73
2023-05-03T07:57:15.000Z,71.77
2023-05-03T07:58:12.000Z,71.50
2023-05-03T07:59:12.000Z,70.99
2023-05-03T08:00:13.000Z,71.34
2023-05-03T08:01:11.000Z,71.23
2023-05-03T08:02:11.000Z,70.98
2023-05-03T08:03:11.000Z,71.12
2023-05-03T08:04:11.000Z,71.05
2023-05-03T08:05:12.000Z,70.27
2023-05-03T08:06:11.000Z,70.65
2023-05-03T08:07:12.000Z,70.71
2023-05-03T08:08:12.000Z,70.92
2023-05-03T08:09:12.000Z,71.43
2023-05-03T08:10:11.000Z,70.88
2023-05-03T08:11:12.000Z,71.30
2023-05-03T08:12:11.000Z,70.98
2023-05-03T08:13:11.000Z,71.09
2023-05-03T08:14:11.000Z,70.75
2023-05-03T08:15:11.000Z,70.71
2023-05-03T08:16:11.000Z,70.86
2023-05-03T08:17:11.000Z,70.74
2023-05-03T08:18:11.000Z,71.11
2023-05-03T08:19:11.000Z,70.89
2023-05-03T08:20:11.000Z,70.71
2023-05-03T08:21:13.000Z,70.72
2023-05-03T08:22:11.000Z,70.57
2023-05-03T08:23:11.000Z,70.37
2023-05-03T08:24:12.000Z,70.22
2023-05-03T08:25:11.000Z,70.22
2023-05-03T08:26:12.000Z,69.92
2023-05-03T08:27:11.000Z,69.56
2023-05-03T08:28:11.000Z,69.63
2023-05-03T08:29:12.000Z,69.64
2023-05-03T08:30:12.000Z,69.81
2023-05-03T08:31:11.000Z,69.90
2023-05-03T08:32:12.000Z,70.09
2023-05-03T08:33:11.000Z,70.30
2023-05-03T08:34:11.000Z,69.71
2023-05-03T08:35:13.000Z,69.92
2023-05-03T08:36:11.000Z,70.01
2023-05-03T08:37:11.000Z,70.10
2023-05-03T08:38:12.000Z,69.85
2023-05-03T08:39:13.000Z,69.57
2023-05-03T08:40:13.000Z,69.66
2023-05-03T08:41:26.000Z,69.41
2023-05-03T08:42:12.000Z,69.54
2023-05-03T08:43:14.000Z,69.36
2023-05-03T08:44:19.000Z,69.24
2023-05-03T08:45:14.000Z,69.56
2023-05-03T08:46:12.000Z,69.79
2023-05-03T08:47:12.000Z,70.46
2023-05-03T08:48:12.000Z,69.57
2023-05-03T08:49:12.000Z,69.56
2023-05-03T08:50:13.000Z,69.42
2023-05-03T08:51:12.000Z,69.58
2023-05-03T08:52:13.000Z,69.73
2023-05-03T08:53:11.000Z,69.50
2023-05-03T08:54:13.000Z,69.73
2023-05-03T08:55:12.000Z,69.77
2023-05-03T08:56:22.000Z,69.73
2023-05-03T08:57:13.000Z,69.78
2023-05-03T08:58:12.000Z,69.96
2023-05-03T08:59:12.000Z,69.75
2023-05-03T09:00:13.000Z,69.77
2023-05-03T09:01:12.000Z,69.70
2023-05-03T09:02:13.000Z,70.43
2023-05-03T09:03:12.000Z,68.96
2023-05-03T09:04:12.000Z,69.14
2023-05-03T09:05:30.000Z,69.55
2023-05-03T09:06:18.000Z,69.18
2023-05-03T09:07:12.000Z,69.01
2023-05-03T09:08:13.000Z,69.25
2023-05-03T09:09:12.000Z,69.27
2023-05-03T09:10:22.000Z,69.28
2023-05-03T09:11:20.000Z,69.10
2023-05-03T09:12:32.000Z,68.74
2023-05-03T09:13:12.000Z,68.31
2023-05-03T09:14:13.000Z,68.68
2023-05-03T09:15:19.000Z,68.52
2023-05-03T09:16:20.000Z,68.82
2023-05-03T09:17:17.000Z,69.08
2023-05-03T09:18:15.000Z,68.68
2023-05-03T09:19:13.000Z,68.49
2023-05-03T09:20:12.000Z,67.99
2023-05-03T09:21:17.000Z,68.74
2023-05-03T09:22:12.000Z,68.67
2023-05-03T09:23:12.000Z,68.75
2023-05-03T09:24:18.000Z,68.38
2023-05-03T09:25:12.000Z,67.75
2023-05-03T09:26:25.000Z,68.03
2023-05-03T09:27:16.000Z,67.80
2023-05-03T09:28:13.000Z,67.74
2023-05-03T09:29:22.000Z,67.85
2023-05-03T09:30:16.000Z,67.80
2023-05-03T09:31:12.000Z,67.94
2023-05-03T09:32:12.000Z,68.29
2023-05-03T09:33:27.000Z,67.72
2023-05-03T09:34:19.000Z,67.90
2023-05-03T09:35:13.000Z,68.06
2023-05-03T09:36:11.000Z,67.07
2023-05-03T09:37:14.000Z,66.89
2023-05-03T09:38:24.000Z,66.72
2023-05-03T09:39:15.000Z,66.90
2023-05-03T09:40:16.000Z,66.97
2023-05-03T09:41:12.000Z,67.06
2023-05-03T09:42:16.000Z,67.37
2023-05-03T09:43:14.000Z,67.39
2023-05-03T09:44:11.000Z,66.96
2023-05-03T09:45:21.000Z,66.97
2023-05-03T09:46:12.000Z,66.76
2023-05-03T09:47:11.000Z,66.48
2023-05-03T09:48:12.000Z,66.32
2023-05-03T09:49:11.000Z,66.16
2023-05-03T09:50:11.000Z,65.97
2023-05-03T09:51:11.000Z,65.95
2023-05-03T09:52:11.000Z,66.02
2023-05-03T09:53:13.000Z,66.44
2023-05-03T09:54:13.000Z,66.51
2023-05-03T09:55:14.000Z,67.28
2023-05-03T09:56:11.000Z,66.54
2023-05-03T09:57:13.000Z,66.23
2023-05-03T09:58:13.000Z,65.82
2023-05-03T09:59:11.000Z,65.37
2023-05-03T10:00:12.000Z,64.55
2023-05-03T10:01:12.000Z,64.75
2023-05-03T10:02:12.000Z,65.25
2023-05-03T10:03:20.000Z,64.97
2023-05-03T10:04:16.000Z,65.05
2023-05-03T10:05:13.000Z,65.14
2023-05-03T10:06:22.000Z,64.77
2023-05-03T10:07:16.000Z,64.27
2023-05-03T10:08:32.000Z,64.40
2023-05-03T10:09:25.000Z,64.27
2023-05-03T10:10:12.000Z,64.42
2023-05-03T10:11:15.000Z,65.12
2023-05-03T10:12:12.000Z,64.61
2023-05-03T10:13:13.000Z,64.57
2023-05-03T10:14:12.000Z,64.34
2023-05-03T10:15:14.000Z,64.31
2023-05-03T10:16:17.000Z,64.57
2023-05-03T10:17:18.000Z,64.80
2023-05-03T10:18:16.000Z,64.20
2023-05-03T10:19:17.000Z,64.17
2023-05-03T10:20:25.000Z,63.93
2023-05-03T10:21:19.000Z,64.22
2023-05-03T10:22:12.000Z,64.58
2023-05-03T10:23:12.000Z,65.14
2023-05-03T10:24:13.000Z,65.56
2023-05-03T10:25:12.000Z,65.06
2023-05-03T10:26:14.000Z,64.15
2023-05-03T10:27:12.000Z,62.69
2023-05-03T10:28:12.000Z,62.80
2023-05-03T10:29:22.000Z,62.49
2023-05-03T10:30:22.000Z,62.53
2023-05-03T10:31:32.000Z,62.51
2023-05-03T10:32:22.000Z,61.63
2023-05-03T10:33:28.000Z,61.93
2023-05-03T10:34:20.000Z,62.46
2023-05-03T10:35:13.000Z,61.58
2023-05-03T10:36:11.000Z,61.96
2023-05-03T10:37:11.000Z,62.57
2023-05-03T10:38:13.000Z,62.59
2023-05-03T10:39:15.000Z,63.27
2023-05-03T10:40:14.000Z,61.91
2023-05-03T10:41:11.000Z,61.06
2023-05-03T10:42:11.000Z,61.27
2023-05-03T10:43:22.000Z,61.41
2023-05-03T10:44:22.000Z,61.65
2023-05-03T10:45:23.000Z,61.98
2023-05-03T10:46:27.000Z,61.47
2023-05-03T10:47:16.000Z,61.28
2023-05-03T10:48:15.000Z,60.68
2023-05-03T10:49:17.000Z,60.82
2023-05-03T10:50:30.000Z,61.23
2023-05-03T10:51:22.000Z,60.99
2023-05-03T10:52:21.000Z,61.39
2023-05-03T10:53:22.000Z,61.42
2023-05-03T10:54:12.000Z,61.64
2023-05-03T10:55:14.000Z,60.66
2023-05-03T10:56:12.000Z,60.82
2023-05-03T10:57:12.000Z,61.03
2023-05-03T10:58:13.000Z,61.14
2023-05-03T10:59:11.000Z,60.01
2023-05-03T11:00:17.000Z,59.57
2023-05-03T11:01:16.000Z,59.58
2023-05-03T11:02:19.000Z,59.15
2023-05-03T11:03:35.000Z,58.76
2023-05-03T11:04:21.000Z,59.08
2023-05-03T11:05:15.000Z,59.15
2023-05-03T11:06:22.000Z,58.36
2023-05-03T11:07:18.000Z,58.22
2023-05-03T11:08:14.000Z,58.72
2023-05-03T11:09:13.000Z,58.93
2023-05-03T11:10:18.000Z,58.85
2023-05-03T11:11:12.000Z,60.27
2023-05-03T11:12:12.000Z,59.97
2023-05-03T11:13:12.000Z,59.78
2023-05-03T11:14:12.000Z,58.65
2023-05-03T11:15:12.000Z,59.09
2023-05-03T11:16:12.000Z,58.66
2023-05-03T11:17:12.000Z,59.15
2023-05-03T11:18:12.000Z,58.62
2023-05-03T11:19:13.000Z,58.34
2023-05-03T11:20:12.000Z,59.27
2023-05-03T11:21:12.000Z,59.33
2023-05-03T11:22:12.000Z,58.38
2023-05-03T11:23:12.000Z,57.40
2023-05-03T11:24:12.000Z,57.86
2023-05-03T11:25:12.000Z,58.20
2023-05-03T11:26:12.000Z,58.10
2023-05-03T11:27:22.000Z,58.52
2023-05-03T11:28:12.000Z,56.87
2023-05-03T11:29:13.000Z,57.91
2023-05-03T11:30:12.000Z,57.99
2023-05-03T11:31:12.000Z,55.75
2023-05-03T11:32:16.000Z,56.92
2023-05-03T11:33:12.000Z,57.52
2023-05-03T11:34:12.000Z,57.27
2023-05-03T11:35:13.000Z,55.63
2023-05-03T11:36:13.000Z,54.79
2023-05-03T11:37:11.000Z,55.04
2023-05-03T11:38:11.000Z,54.54
2023-05-03T11:39:12.000Z,53.77
2023-05-03T11:40:14.000Z,54.41
2023-05-03T11:41:14.000Z,53.31
2023-05-03T11:42:11.000Z,54.49
2023-05-03T11:43:11.000Z,51.95
2023-05-03T11:44:11.000Z,51.08
2023-05-03T11:45:11.000Z,52.47
2023-05-03T11:46:23.000Z,50.43
2023-05-03T11:47:11.000Z,51.11
2023-05-03T11:48:11.000Z,52.09
2023-05-03T11:49:15.000Z,50.14
2023-05-03T11:50:11.000Z,50.94
2023-05-03T11:51:12.000Z,50.55
2023-05-03T11:52:11.000Z,51.93
2023-05-03T11:53:16.000Z,51.80
2023-05-03T11:54:12.000Z,50.00
2023-05-03T11:55:11.000Z,48.93
2023-05-03T11:56:16.000Z,50.03
2023-05-03T11:57:12.000Z,50.49
2023-05-03T11:58:24.000Z,50.66
2023-05-03T11:59:11.000Z,51.79
2023-05-03T12:00:14.000Z,49.71
2023-05-03T12:01:12.000Z,47.70
2023-05-03T12:02:13.000Z,48.91
2023-05-03T12:03:21.000Z,48.86
2023-05-03T12:04:12.000Z,48.93
2023-05-03T12:05:14.000Z,50.66
2023-05-03T12:06:12.000Z,50.96
2023-05-03T12:07:12.000Z,49.75
2023-05-03T12:08:12.000Z,50.48
2023-05-03T12:09:12.000Z,50.51
2023-05-03T12:10:16.000Z,50.32
2023-05-03T12:11:12.000Z,51.29
2023-05-03T12:12:17.000Z,49.45
2023-05-03T12:13:12.000Z,50.31
2023-05-03T12:14:12.000Z,51.42
2023-05-03T12:15:12.000Z,51.24
2023-05-03T12:16:13.000Z,52.40
2023-05-03T12:17:12.000Z,52.13
2023-05-03T12:18:12.000Z,52.19
2023-05-03T12:19:25.000Z,51.32
2023-05-03T12:20:22.000Z,49.77
2023-05-03T12:20:22.000Z,49.77
2023-05-03T12:21:44.000Z,48.81
2023-05-03T12:22:18.000Z,50.25
2023-05-03T12:23:12.000Z,50.09
2023-05-03T12:24:15.000Z,49.51
2023-05-03T12:25:12.000Z,49.42
2023-05-03T12:26:12.000Z,50.63
2023-05-03T12:27:12.000Z,50.34
2023-05-03T12:28:12.000Z,49.15
2023-05-03T12:29:12.000Z,49.05
2023-05-03T12:30:13.000Z,48.63
2023-05-03T12:31:12.000Z,49.59
2023-05-03T12:32:13.000Z,50.80
2023-05-03T12:33:12.000Z,50.31
2023-05-03T12:34:12.000Z,50.53
2023-05-03T12:35:12.000Z,51.01
2023-05-03T12:36:12.000Z,50.47
2023-05-03T12:37:11.000Z,46.67
2023-05-03T12:38:12.000Z,43.78
2023-05-03T12:39:12.000Z,43.90
2023-05-03T12:40:12.000Z,45.19
2023-05-03T12:41:12.000Z,46.89
2023-05-03T12:42:12.000Z,45.41
2023-05-03T12:43:11.000Z,46.70
2023-05-03T12:44:11.000Z,46.23
2023-05-03T12:45:14.000Z,46.33
2023-05-03T12:46:11.000Z,47.55
2023-05-03T12:47:12.000Z,46.30
2023-05-03T12:48:11.000Z,45.53
2023-05-03T12:49:11.000Z,47.14
2023-05-03T12:50:11.000Z,47.81
2023-05-03T12:51:13.000Z,46.72